sensor_id;sensor_type;location;lat;lon;timestamp;P1;durP1;ratioP1;P2;durP2;ratioP2
23101;SDS011;11720;51.214;22.574;2022-11-03T00:01:00;6.40;;;3.07;;
23101;SDS011;11720;51.214;22.574;2022-11-03T00:03:26;9.00;;;3.40;;
23101;SDS011;11720;51.214;22.574;2022-11-03T00:05:52;7.33;;;3.20;;
23101;SDS011;11720;51.214;22.574;2022-11-03T00:08:30;8.70;;;3.47;;
23101;SDS011;11720;51.214;22.574;2022-11-03T00:11:04;8.23;;;3.10;;
23101;SDS011;11720;51.214;22.574;2022-11-03T00:13:35;7.47;;;3.53;;
23101;SDS011;11720;51.214;22.574;2022-11-03T00:16:02;8.87;;;3.20;;
23101;SDS011;11720;51.214;22.574;2022-11-03T00:18:28;5.17;;;3.47;;
23101;SDS011;11720;51.214;22.574;2022-11-03T00:20:57;6.53;;;3.23;;
23101;SDS011;11720;51.214;22.574;2022-11-03T00:23:34;5.97;;;3.20;;
23101;SDS011;11720;51.214;22.574;2022-11-03T00:26:04;6.27;;;3.60;;
23101;SDS011;11720;51.214;22.574;2022-11-03T00:28:30;6.03;;;4.30;;
23101;SDS011;11720;51.214;22.574;2022-11-03T00:30:58;7.77;;;4.23;;
23101;SDS011;11720;51.214;22.574;2022-11-03T00:33:30;8.67;;;3.97;;
23101;SDS011;11720;51.214;22.574;2022-11-03T00:35:57;10.37;;;5.00;;
23101;SDS011;11720;51.214;22.574;2022-11-03T00:38:27;7.77;;;3.67;;
23101;SDS011;11720;51.214;22.574;2022-11-03T00:40:54;11.17;;;2.70;;
23101;SDS011;11720;51.214;22.574;2022-11-03T00:43:23;8.43;;;4.23;;
23101;SDS011;11720;51.214;22.574;2022-11-03T00:45:50;13.57;;;3.77;;
23101;SDS011;11720;51.214;22.574;2022-11-03T00:48:15;7.10;;;3.70;;
23101;SDS011;11720;51.214;22.574;2022-11-03T00:50:53;12.17;;;3.50;;
23101;SDS011;11720;51.214;22.574;2022-11-03T00:53:29;11.30;;;3.37;;
23101;SDS011;11720;51.214;22.574;2022-11-03T00:55:55;8.17;;;4.57;;
23101;SDS011;11720;51.214;22.574;2022-11-03T00:58:21;11.60;;;4.33;;
23101;SDS011;11720;51.214;22.574;2022-11-03T01:00:47;8.10;;;4.13;;
23101;SDS011;11720;51.214;22.574;2022-11-03T01:03:12;7.17;;;3.93;;
23101;SDS011;11720;51.214;22.574;2022-11-03T01:05:42;9.90;;;4.73;;
23101;SDS011;11720;51.214;22.574;2022-11-03T01:08:34;9.60;;;4.07;;
23101;SDS011;11720;51.214;22.574;2022-11-03T01:14:08;8.20;;;3.60;;
23101;SDS011;11720;51.214;22.574;2022-11-03T01:16:37;9.43;;;2.97;;
23101;SDS011;11720;51.214;22.574;2022-11-03T01:19:02;12.03;;;3.60;;
23101;SDS011;11720;51.214;22.574;2022-11-03T01:21:28;6.37;;;3.53;;
23101;SDS011;11720;51.214;22.574;2022-11-03T01:23:55;9.53;;;4.67;;
23101;SDS011;11720;51.214;22.574;2022-11-03T01:26:23;6.80;;;3.30;;
23101;SDS011;11720;51.214;22.574;2022-11-03T01:28:49;10.50;;;4.43;;
23101;SDS011;11720;51.214;22.574;2022-11-03T01:31:19;6.90;;;4.00;;
23101;SDS011;11720;51.214;22.574;2022-11-03T01:33:48;7.83;;;3.10;;
23101;SDS011;11720;51.214;22.574;2022-11-03T01:36:15;6.93;;;3.83;;
23101;SDS011;11720;51.214;22.574;2022-11-03T01:38:41;7.07;;;3.87;;
23101;SDS011;11720;51.214;22.574;2022-11-03T01:41:09;6.13;;;3.47;;
23101;SDS011;11720;51.214;22.574;2022-11-03T01:43:40;9.03;;;3.57;;
23101;SDS011;11720;51.214;22.574;2022-11-03T01:48:35;9.13;;;3.53;;
23101;SDS011;11720;51.214;22.574;2022-11-03T01:51:29;6.43;;;3.10;;
23101;SDS011;11720;51.214;22.574;2022-11-03T01:53:57;9.40;;;4.30;;
23101;SDS011;11720;51.214;22.574;2022-11-03T01:56:28;5.37;;;3.13;;
23101;SDS011;11720;51.214;22.574;2022-11-03T01:58:57;10.23;;;2.83;;
23101;SDS011;11720;51.214;22.574;2022-11-03T02:01:23;12.07;;;4.43;;
23101;SDS011;11720;51.214;22.574;2022-11-03T02:03:54;7.33;;;3.37;;
23101;SDS011;11720;51.214;22.574;2022-11-03T02:06:24;5.87;;;3.80;;
23101;SDS011;11720;51.214;22.574;2022-11-03T02:09:02;17.00;;;4.37;;
23101;SDS011;11720;51.214;22.574;2022-11-03T02:11:30;11.43;;;3.30;;
23101;SDS011;11720;51.214;22.574;2022-11-03T02:14:16;7.43;;;4.00;;
23101;SDS011;11720;51.214;22.574;2022-11-03T02:16:52;11.43;;;3.27;;
23101;SDS011;11720;51.214;22.574;2022-11-03T02:25:10;7.53;;;3.80;;
23101;SDS011;11720;51.214;22.574;2022-11-03T02:27:36;9.23;;;3.70;;
23101;SDS011;11720;51.214;22.574;2022-11-03T02:30:02;7.77;;;3.90;;
23101;SDS011;11720;51.214;22.574;2022-11-03T02:32:30;6.57;;;3.43;;
23101;SDS011;11720;51.214;22.574;2022-11-03T02:37:52;6.30;;;4.00;;
23101;SDS011;11720;51.214;22.574;2022-11-03T02:40:26;9.27;;;3.87;;
23101;SDS011;11720;51.214;22.574;2022-11-03T02:42:55;5.57;;;3.60;;
23101;SDS011;11720;51.214;22.574;2022-11-03T02:45:23;7.77;;;3.30;;
23101;SDS011;11720;51.214;22.574;2022-11-03T02:47:50;12.10;;;3.93;;
23101;SDS011;11720;51.214;22.574;2022-11-03T02:50:19;9.93;;;3.20;;
23101;SDS011;11720;51.214;22.574;2022-11-03T02:52:49;7.77;;;3.50;;
23101;SDS011;11720;51.214;22.574;2022-11-03T02:58:12;7.43;;;3.60;;
23101;SDS011;11720;51.214;22.574;2022-11-03T03:06:18;5.53;;;2.77;;
23101;SDS011;11720;51.214;22.574;2022-11-03T03:08:52;8.77;;;3.63;;
23101;SDS011;11720;51.214;22.574;2022-11-03T03:11:21;10.30;;;3.03;;
23101;SDS011;11720;51.214;22.574;2022-11-03T03:14:04;9.03;;;4.33;;
23101;SDS011;11720;51.214;22.574;2022-11-03T03:16:34;7.23;;;3.17;;
23101;SDS011;11720;51.214;22.574;2022-11-03T03:19:16;12.40;;;3.40;;
23101;SDS011;11720;51.214;22.574;2022-11-03T03:21:47;13.13;;;3.67;;
23101;SDS011;11720;51.214;22.574;2022-11-03T03:24:28;8.63;;;3.47;;
23101;SDS011;11720;51.214;22.574;2022-11-03T03:27:01;11.57;;;3.33;;
23101;SDS011;11720;51.214;22.574;2022-11-03T03:29:33;6.93;;;3.00;;
23101;SDS011;11720;51.214;22.574;2022-11-03T03:32:07;5.17;;;2.93;;
23101;SDS011;11720;51.214;22.574;2022-11-03T03:34:35;8.33;;;2.67;;
23101;SDS011;11720;51.214;22.574;2022-11-03T03:37:03;5.07;;;2.53;;
23101;SDS011;11720;51.214;22.574;2022-11-03T03:39:32;6.87;;;4.13;;
23101;SDS011;11720;51.214;22.574;2022-11-03T03:42:01;7.37;;;3.30;;
23101;SDS011;11720;51.214;22.574;2022-11-03T03:44:29;9.30;;;3.27;;
23101;SDS011;11720;51.214;22.574;2022-11-03T03:46:58;6.77;;;3.03;;
23101;SDS011;11720;51.214;22.574;2022-11-03T03:49:25;6.53;;;2.90;;
23101;SDS011;11720;51.214;22.574;2022-11-03T03:51:51;7.07;;;3.13;;
23101;SDS011;11720;51.214;22.574;2022-11-03T03:54:17;5.40;;;3.13;;
23101;SDS011;11720;51.214;22.574;2022-11-03T03:56:58;5.53;;;3.47;;
23101;SDS011;11720;51.214;22.574;2022-11-03T03:59:26;3.70;;;2.90;;
23101;SDS011;11720;51.214;22.574;2022-11-03T04:01:52;4.07;;;2.47;;
23101;SDS011;11720;51.214;22.574;2022-11-03T04:04:18;6.33;;;3.80;;
23101;SDS011;11720;51.214;22.574;2022-11-03T04:06:44;6.37;;;3.27;;
23101;SDS011;11720;51.214;22.574;2022-11-03T04:09:10;10.10;;;3.37;;
23101;SDS011;11720;51.214;22.574;2022-11-03T04:11:35;5.63;;;4.23;;
23101;SDS011;11720;51.214;22.574;2022-11-03T04:14:20;8.50;;;3.57;;
23101;SDS011;11720;51.214;22.574;2022-11-03T04:17:04;5.83;;;3.67;;
23101;SDS011;11720;51.214;22.574;2022-11-03T04:19:57;6.23;;;3.53;;
23101;SDS011;11720;51.214;22.574;2022-11-03T04:22:41;5.27;;;3.03;;
23101;SDS011;11720;51.214;22.574;2022-11-03T04:25:06;5.73;;;3.43;;
23101;SDS011;11720;51.214;22.574;2022-11-03T04:27:33;9.70;;;3.30;;
23101;SDS011;11720;51.214;22.574;2022-11-03T04:30:16;9.57;;;2.90;;
23101;SDS011;11720;51.214;22.574;2022-11-03T04:32:44;8.87;;;3.13;;
23101;SDS011;11720;51.214;22.574;2022-11-03T04:35:16;4.33;;;2.50;;
23101;SDS011;11720;51.214;22.574;2022-11-03T04:37:44;5.40;;;3.03;;
23101;SDS011;11720;51.214;22.574;2022-11-03T04:40:13;5.87;;;3.20;;
23101;SDS011;11720;51.214;22.574;2022-11-03T04:42:40;7.47;;;2.80;;
23101;SDS011;11720;51.214;22.574;2022-11-03T04:45:40;7.67;;;2.70;;
23101;SDS011;11720;51.214;22.574;2022-11-03T04:48:00;5.03;;;3.33;;
23101;SDS011;11720;51.214;22.574;2022-11-03T04:50:30;5.63;;;3.33;;
23101;SDS011;11720;51.214;22.574;2022-11-03T04:52:56;4.93;;;2.43;;
23101;SDS011;11720;51.214;22.574;2022-11-03T04:55:23;7.77;;;3.30;;
23101;SDS011;11720;51.214;22.574;2022-11-03T04:57:53;4.57;;;3.33;;
23101;SDS011;11720;51.214;22.574;2022-11-03T05:00:21;4.87;;;2.87;;
23101;SDS011;11720;51.214;22.574;2022-11-03T05:02:48;15.07;;;4.07;;
23101;SDS011;11720;51.214;22.574;2022-11-03T05:05:15;12.10;;;3.37;;
23101;SDS011;11720;51.214;22.574;2022-11-03T05:07:41;6.87;;;3.30;;
23101;SDS011;11720;51.214;22.574;2022-11-03T05:10:12;5.93;;;2.43;;
23101;SDS011;11720;51.214;22.574;2022-11-03T05:12:40;9.73;;;3.13;;
23101;SDS011;11720;51.214;22.574;2022-11-03T05:15:09;3.67;;;2.90;;
23101;SDS011;11720;51.214;22.574;2022-11-03T05:17:50;4.47;;;2.97;;
23101;SDS011;11720;51.214;22.574;2022-11-03T05:20:28;5.07;;;2.83;;
23101;SDS011;11720;51.214;22.574;2022-11-03T05:22:55;5.30;;;2.73;;
23101;SDS011;11720;51.214;22.574;2022-11-03T05:25:41;3.77;;;2.57;;
23101;SDS011;11720;51.214;22.574;2022-11-03T05:28:18;4.33;;;3.30;;
23101;SDS011;11720;51.214;22.574;2022-11-03T05:30:47;3.70;;;2.73;;
23101;SDS011;11720;51.214;22.574;2022-11-03T05:36:15;5.30;;;2.87;;
23101;SDS011;11720;51.214;22.574;2022-11-03T05:38:44;5.37;;;3.23;;
23101;SDS011;11720;51.214;22.574;2022-11-03T05:41:28;4.60;;;2.77;;
23101;SDS011;11720;51.214;22.574;2022-11-03T05:44:02;5.93;;;2.40;;
23101;SDS011;11720;51.214;22.574;2022-11-03T05:46:38;6.27;;;2.40;;
23101;SDS011;11720;51.214;22.574;2022-11-03T05:49:04;4.33;;;1.77;;
23101;SDS011;11720;51.214;22.574;2022-11-03T05:51:33;7.13;;;3.27;;
23101;SDS011;11720;51.214;22.574;2022-11-03T05:54:02;3.97;;;2.37;;
23101;SDS011;11720;51.214;22.574;2022-11-03T05:56:31;3.67;;;2.63;;
23101;SDS011;11720;51.214;22.574;2022-11-03T05:58:57;7.40;;;2.80;;
23101;SDS011;11720;51.214;22.574;2022-11-03T06:01:31;5.93;;;3.33;;
23101;SDS011;11720;51.214;22.574;2022-11-03T06:07:11;9.00;;;2.70;;
23101;SDS011;11720;51.214;22.574;2022-11-03T06:09:47;2.80;;;2.43;;
23101;SDS011;11720;51.214;22.574;2022-11-03T06:12:13;4.60;;;2.80;;
23101;SDS011;11720;51.214;22.574;2022-11-03T06:14:43;3.70;;;2.73;;
23101;SDS011;11720;51.214;22.574;2022-11-03T06:17:10;6.07;;;3.07;;
23101;SDS011;11720;51.214;22.574;2022-11-03T06:19:53;6.00;;;3.67;;
23101;SDS011;11720;51.214;22.574;2022-11-03T06:24:51;9.40;;;3.63;;
23101;SDS011;11720;51.214;22.574;2022-11-03T06:27:23;16.37;;;4.30;;
23101;SDS011;11720;51.214;22.574;2022-11-03T06:29:54;4.53;;;3.33;;
23101;SDS011;11720;51.214;22.574;2022-11-03T06:32:22;8.73;;;2.97;;
23101;SDS011;11720;51.214;22.574;2022-11-03T06:34:49;6.27;;;3.97;;
23101;SDS011;11720;51.214;22.574;2022-11-03T06:37:22;5.07;;;3.57;;
23101;SDS011;11720;51.214;22.574;2022-11-03T06:39:50;5.50;;;2.73;;
23101;SDS011;11720;51.214;22.574;2022-11-03T06:42:24;10.50;;;3.17;;
23101;SDS011;11720;51.214;22.574;2022-11-03T06:44:53;8.43;;;3.47;;
23101;SDS011;11720;51.214;22.574;2022-11-03T06:47:19;3.17;;;2.90;;
23101;SDS011;11720;51.214;22.574;2022-11-03T06:49:51;5.07;;;3.13;;
23101;SDS011;11720;51.214;22.574;2022-11-03T06:52:28;4.60;;;3.33;;
23101;SDS011;11720;51.214;22.574;2022-11-03T06:57:33;11.30;;;2.60;;
23101;SDS011;11720;51.214;22.574;2022-11-03T07:00:36;9.20;;;3.43;;
23101;SDS011;11720;51.214;22.574;2022-11-03T07:03:08;3.87;;;2.57;;
23101;SDS011;11720;51.214;22.574;2022-11-03T07:05:49;7.80;;;3.23;;
23101;SDS011;11720;51.214;22.574;2022-11-03T07:08:22;5.57;;;2.67;;
23101;SDS011;11720;51.214;22.574;2022-11-03T07:11:34;5.67;;;2.63;;
23101;SDS011;11720;51.214;22.574;2022-11-03T07:13:42;5.30;;;2.60;;
23101;SDS011;11720;51.214;22.574;2022-11-03T07:16:12;3.23;;;2.27;;
23101;SDS011;11720;51.214;22.574;2022-11-03T07:18:51;5.60;;;2.80;;
23101;SDS011;11720;51.214;22.574;2022-11-03T07:23:59;6.90;;;2.17;;
23101;SDS011;11720;51.214;22.574;2022-11-03T07:26:27;2.23;;;2.00;;
23101;SDS011;11720;51.214;22.574;2022-11-03T07:28:53;7.53;;;3.63;;
23101;SDS011;11720;51.214;22.574;2022-11-03T07:31:19;3.77;;;2.43;;
23101;SDS011;11720;51.214;22.574;2022-11-03T07:33:48;11.80;;;3.60;;
23101;SDS011;11720;51.214;22.574;2022-11-03T07:36:16;11.47;;;2.93;;
23101;SDS011;11720;51.214;22.574;2022-11-03T07:38:46;3.93;;;2.10;;
23101;SDS011;11720;51.214;22.574;2022-11-03T07:41:18;6.00;;;2.63;;
23101;SDS011;11720;51.214;22.574;2022-11-03T07:43:55;4.03;;;2.67;;
23101;SDS011;11720;51.214;22.574;2022-11-03T07:46:23;5.80;;;2.60;;
23101;SDS011;11720;51.214;22.574;2022-11-03T07:48:54;7.57;;;2.50;;
23101;SDS011;11720;51.214;22.574;2022-11-03T07:51:28;9.63;;;2.33;;
23101;SDS011;11720;51.214;22.574;2022-11-03T07:54:02;5.10;;;2.57;;
23101;SDS011;11720;51.214;22.574;2022-11-03T07:56:44;2.27;;;2.07;;
23101;SDS011;11720;51.214;22.574;2022-11-03T07:59:44;6.33;;;2.90;;
23101;SDS011;11720;51.214;22.574;2022-11-03T08:04:44;4.07;;;2.27;;
23101;SDS011;11720;51.214;22.574;2022-11-03T08:07:09;8.33;;;3.07;;
23101;SDS011;11720;51.214;22.574;2022-11-03T08:09:35;3.87;;;2.30;;
23101;SDS011;11720;51.214;22.574;2022-11-03T08:12:01;6.07;;;2.80;;
23101;SDS011;11720;51.214;22.574;2022-11-03T08:14:26;6.10;;;2.23;;
23101;SDS011;11720;51.214;22.574;2022-11-03T08:16:52;5.03;;;2.30;;
23101;SDS011;11720;51.214;22.574;2022-11-03T08:19:18;5.13;;;2.77;;
23101;SDS011;11720;51.214;22.574;2022-11-03T08:21:44;3.50;;;2.07;;
23101;SDS011;11720;51.214;22.574;2022-11-03T08:24:09;6.83;;;2.20;;
23101;SDS011;11720;51.214;22.574;2022-11-03T08:26:35;3.27;;;1.80;;
23101;SDS011;11720;51.214;22.574;2022-11-03T08:29:01;7.57;;;1.92;;
23101;SDS011;11720;51.214;22.574;2022-11-03T08:31:26;2.50;;;2.13;;
23101;SDS011;11720;51.214;22.574;2022-11-03T08:33:52;8.63;;;1.73;;
23101;SDS011;11720;51.214;22.574;2022-11-03T08:36:18;3.80;;;2.20;;
23101;SDS011;11720;51.214;22.574;2022-11-03T08:38:44;2.25;;;2.00;;
23101;SDS011;11720;51.214;22.574;2022-11-03T08:41:10;5.88;;;1.83;;
23101;SDS011;11720;51.214;22.574;2022-11-03T08:43:36;2.00;;;1.30;;
23101;SDS011;11720;51.214;22.574;2022-11-03T08:46:01;4.30;;;1.40;;
23101;SDS011;11720;51.214;22.574;2022-11-03T08:48:27;2.50;;;1.63;;
23101;SDS011;11720;51.214;22.574;2022-11-03T08:50:53;3.63;;;1.40;;
23101;SDS011;11720;51.214;22.574;2022-11-03T08:53:20;4.72;;;1.48;;
23101;SDS011;11720;51.214;22.574;2022-11-03T08:55:49;2.57;;;1.33;;
23101;SDS011;11720;51.214;22.574;2022-11-03T08:58:15;3.88;;;1.90;;
23101;SDS011;11720;51.214;22.574;2022-11-03T09:00:41;6.07;;;1.80;;
23101;SDS011;11720;51.214;22.574;2022-11-03T09:03:07;2.30;;;2.08;;
23101;SDS011;11720;51.214;22.574;2022-11-03T09:05:33;4.50;;;2.10;;
23101;SDS011;11720;51.214;22.574;2022-11-03T09:07:58;3.78;;;1.58;;
23101;SDS011;11720;51.214;22.574;2022-11-03T09:10:24;2.90;;;1.58;;
23101;SDS011;11720;51.214;22.574;2022-11-03T09:12:50;2.92;;;1.63;;
23101;SDS011;11720;51.214;22.574;2022-11-03T09:15:17;5.00;;;1.88;;
23101;SDS011;11720;51.214;22.574;2022-11-03T09:17:43;4.25;;;1.52;;
23101;SDS011;11720;51.214;22.574;2022-11-03T09:20:09;2.92;;;1.30;;
23101;SDS011;11720;51.214;22.574;2022-11-03T09:22:35;6.60;;;2.03;;
23101;SDS011;11720;51.214;22.574;2022-11-03T09:25:01;4.65;;;2.00;;
23101;SDS011;11720;51.214;22.574;2022-11-03T09:27:27;2.28;;;1.80;;
23101;SDS011;11720;51.214;22.574;2022-11-03T09:29:52;4.68;;;1.85;;
23101;SDS011;11720;51.214;22.574;2022-11-03T09:32:18;2.90;;;1.70;;
23101;SDS011;11720;51.214;22.574;2022-11-03T09:34:44;5.00;;;1.35;;
23101;SDS011;11720;51.214;22.574;2022-11-03T09:37:10;4.28;;;1.75;;
23101;SDS011;11720;51.214;22.574;2022-11-03T09:39:35;2.65;;;1.50;;
23101;SDS011;11720;51.214;22.574;2022-11-03T09:42:01;5.65;;;1.55;;
23101;SDS011;11720;51.214;22.574;2022-11-03T09:44:30;4.60;;;0.77;;
23101;SDS011;11720;51.214;22.574;2022-11-03T09:46:58;3.97;;;1.20;;
23101;SDS011;11720;51.214;22.574;2022-11-03T09:49:24;2.42;;;1.40;;
23101;SDS011;11720;51.214;22.574;2022-11-03T09:51:50;2.15;;;1.35;;
23101;SDS011;11720;51.214;22.574;2022-11-03T09:54:18;3.65;;;1.95;;
23101;SDS011;11720;51.214;22.574;2022-11-03T09:56:43;4.90;;;1.75;;
23101;SDS011;11720;51.214;22.574;2022-11-03T09:59:21;2.40;;;1.30;;
23101;SDS011;11720;51.214;22.574;2022-11-03T10:01:51;1.10;;;1.00;;
23101;SDS011;11720;51.214;22.574;2022-11-03T10:04:23;1.42;;;1.33;;
23101;SDS011;11720;51.214;22.574;2022-11-03T10:06:54;2.83;;;1.17;;
23101;SDS011;11720;51.214;22.574;2022-11-03T10:09:20;3.75;;;1.05;;
23101;SDS011;11720;51.214;22.574;2022-11-03T10:11:47;5.90;;;1.48;;
23101;SDS011;11720;51.214;22.574;2022-11-03T10:14:15;2.17;;;1.35;;
23101;SDS011;11720;51.214;22.574;2022-11-03T10:16:43;1.33;;;1.20;;
23101;SDS011;11720;51.214;22.574;2022-11-03T10:19:15;3.58;;;1.77;;
23101;SDS011;11720;51.214;22.574;2022-11-03T10:21:43;4.80;;;1.50;;
23101;SDS011;11720;51.214;22.574;2022-11-03T10:24:10;2.85;;;1.50;;
23101;SDS011;11720;51.214;22.574;2022-11-03T10:26:57;4.07;;;1.70;;
23101;SDS011;11720;51.214;22.574;2022-11-03T10:29:23;2.38;;;1.33;;
23101;SDS011;11720;51.214;22.574;2022-11-03T10:31:51;12.90;;;2.75;;
23101;SDS011;11720;51.214;22.574;2022-11-03T10:39:45;2.10;;;1.17;;
23101;SDS011;11720;51.214;22.574;2022-11-03T10:42:16;3.92;;;1.67;;
23101;SDS011;11720;51.214;22.574;2022-11-03T10:44:42;5.90;;;1.58;;
23101;SDS011;11720;51.214;22.574;2022-11-03T10:47:09;1.45;;;1.35;;
23101;SDS011;11720;51.214;22.574;2022-11-03T10:49:50;3.75;;;1.85;;
23101;SDS011;11720;51.214;22.574;2022-11-03T10:54:46;2.47;;;0.85;;
23101;SDS011;11720;51.214;22.574;2022-11-03T10:57:13;3.90;;;1.90;;
23101;SDS011;11720;51.214;22.574;2022-11-03T10:59:40;1.70;;;1.17;;
23101;SDS011;11720;51.214;22.574;2022-11-03T11:02:17;2.00;;;1.05;;
23101;SDS011;11720;51.214;22.574;2022-11-03T11:04:56;3.63;;;1.88;;
23101;SDS011;11720;51.214;22.574;2022-11-03T11:07:25;2.15;;;1.13;;
23101;SDS011;11720;51.214;22.574;2022-11-03T11:10:20;3.50;;;1.40;;
23101;SDS011;11720;51.214;22.574;2022-11-03T11:15:46;5.18;;;1.35;;
23101;SDS011;11720;51.214;22.574;2022-11-03T11:20:52;2.90;;;1.10;;
23101;SDS011;11720;51.214;22.574;2022-11-03T11:31:01;4.45;;;1.55;;
23101;SDS011;11720;51.214;22.574;2022-11-03T11:33:48;6.75;;;1.33;;
23101;SDS011;11720;51.214;22.574;2022-11-03T11:36:21;3.30;;;1.63;;
23101;SDS011;11720;51.214;22.574;2022-11-03T11:41:19;4.88;;;1.17;;
23101;SDS011;11720;51.214;22.574;2022-11-03T11:50:18;2.63;;;1.25;;
23101;SDS011;11720;51.214;22.574;2022-11-03T11:57:49;4.82;;;1.30;;
23101;SDS011;11720;51.214;22.574;2022-11-03T12:00:20;1.50;;;1.30;;
23101;SDS011;11720;51.214;22.574;2022-11-03T12:02:48;5.55;;;1.23;;
23101;SDS011;11720;51.214;22.574;2022-11-03T12:05:22;1.13;;;1.02;;
23101;SDS011;11720;51.214;22.574;2022-11-03T12:07:51;5.28;;;1.25;;
23101;SDS011;11720;51.214;22.574;2022-11-03T12:10:25;2.35;;;1.27;;
23101;SDS011;11720;51.214;22.574;2022-11-03T12:12:56;4.07;;;1.48;;
23101;SDS011;11720;51.214;22.574;2022-11-03T12:18:28;1.90;;;1.05;;
23101;SDS011;11720;51.214;22.574;2022-11-03T12:20:54;1.73;;;1.25;;
23101;SDS011;11720;51.214;22.574;2022-11-03T12:25:59;9.40;;;1.55;;
23101;SDS011;11720;51.214;22.574;2022-11-03T12:28:29;6.63;;;1.13;;
23101;SDS011;11720;51.214;22.574;2022-11-03T12:30:56;1.48;;;1.05;;
23101;SDS011;11720;51.214;22.574;2022-11-03T12:33:21;3.60;;;1.55;;
23101;SDS011;11720;51.214;22.574;2022-11-03T12:35:47;6.10;;;1.92;;
23101;SDS011;11720;51.214;22.574;2022-11-03T12:38:13;4.85;;;1.25;;
23101;SDS011;11720;51.214;22.574;2022-11-03T12:40:38;5.70;;;1.25;;
23101;SDS011;11720;51.214;22.574;2022-11-03T12:43:04;2.47;;;1.27;;
23101;SDS011;11720;51.214;22.574;2022-11-03T12:45:29;3.45;;;1.38;;
23101;SDS011;11720;51.214;22.574;2022-11-03T12:47:55;2.65;;;1.35;;
23101;SDS011;11720;51.214;22.574;2022-11-03T12:50:21;3.65;;;1.42;;
23101;SDS011;11720;51.214;22.574;2022-11-03T12:52:46;6.63;;;1.30;;
23101;SDS011;11720;51.214;22.574;2022-11-03T12:55:12;5.88;;;1.50;;
23101;SDS011;11720;51.214;22.574;2022-11-03T12:57:38;2.88;;;1.20;;
23101;SDS011;11720;51.214;22.574;2022-11-03T13:00:04;8.77;;;1.60;;
23101;SDS011;11720;51.214;22.574;2022-11-03T13:02:30;2.40;;;1.45;;
23101;SDS011;11720;51.214;22.574;2022-11-03T13:04:56;2.95;;;1.50;;
23101;SDS011;11720;51.214;22.574;2022-11-03T13:07:21;3.90;;;1.40;;
23101;SDS011;11720;51.214;22.574;2022-11-03T13:09:47;4.90;;;1.50;;
23101;SDS011;11720;51.214;22.574;2022-11-03T13:12:12;4.68;;;1.15;;
23101;SDS011;11720;51.214;22.574;2022-11-03T13:15:00;3.28;;;1.50;;
23101;SDS011;11720;51.214;22.574;2022-11-03T13:17:28;2.35;;;1.70;;
23101;SDS011;11720;51.214;22.574;2022-11-03T13:19:53;5.80;;;2.03;;
23101;SDS011;11720;51.214;22.574;2022-11-03T13:22:19;2.17;;;0.80;;
23101;SDS011;11720;51.214;22.574;2022-11-03T13:24:45;4.55;;;1.95;;
23101;SDS011;11720;51.214;22.574;2022-11-03T13:27:10;4.75;;;1.13;;
23101;SDS011;11720;51.214;22.574;2022-11-03T13:29:36;4.25;;;1.83;;
23101;SDS011;11720;51.214;22.574;2022-11-03T13:32:03;3.30;;;1.35;;
23101;SDS011;11720;51.214;22.574;2022-11-03T13:34:29;1.88;;;1.10;;
23101;SDS011;11720;51.214;22.574;2022-11-03T13:36:55;3.75;;;1.40;;
23101;SDS011;11720;51.214;22.574;2022-11-03T13:39:21;2.17;;;1.38;;
23101;SDS011;11720;51.214;22.574;2022-11-03T13:41:46;3.70;;;1.63;;
23101;SDS011;11720;51.214;22.574;2022-11-03T13:44:12;4.03;;;1.23;;
23101;SDS011;11720;51.214;22.574;2022-11-03T13:46:38;2.38;;;1.40;;
23101;SDS011;11720;51.214;22.574;2022-11-03T13:49:04;1.63;;;0.95;;
23101;SDS011;11720;51.214;22.574;2022-11-03T13:51:30;3.47;;;1.35;;
23101;SDS011;11720;51.214;22.574;2022-11-03T13:53:55;2.60;;;1.40;;
23101;SDS011;11720;51.214;22.574;2022-11-03T13:56:21;6.15;;;1.60;;
23101;SDS011;11720;51.214;22.574;2022-11-03T13:58:47;2.33;;;1.13;;
23101;SDS011;11720;51.214;22.574;2022-11-03T14:01:13;2.95;;;1.20;;
23101;SDS011;11720;51.214;22.574;2022-11-03T14:03:38;3.28;;;1.40;;
23101;SDS011;11720;51.214;22.574;2022-11-03T14:06:04;5.03;;;2.53;;
23101;SDS011;11720;51.214;22.574;2022-11-03T14:08:30;4.10;;;2.28;;
23101;SDS011;11720;51.214;22.574;2022-11-03T14:10:56;2.78;;;1.70;;
23101;SDS011;11720;51.214;22.574;2022-11-03T14:13:22;8.05;;;1.95;;
23101;SDS011;11720;51.214;22.574;2022-11-03T14:15:47;3.95;;;1.70;;
23101;SDS011;11720;51.214;22.574;2022-11-03T14:18:13;2.75;;;1.55;;
23101;SDS011;11720;51.214;22.574;2022-11-03T14:20:39;8.60;;;2.50;;
23101;SDS011;11720;51.214;22.574;2022-11-03T14:23:04;2.05;;;1.40;;
23101;SDS011;11720;51.214;22.574;2022-11-03T14:25:30;5.07;;;2.10;;
23101;SDS011;11720;51.214;22.574;2022-11-03T14:27:56;4.15;;;1.98;;
23101;SDS011;11720;51.214;22.574;2022-11-03T14:30:21;8.65;;;1.55;;
23101;SDS011;11720;51.214;22.574;2022-11-03T14:32:47;5.63;;;1.60;;
23101;SDS011;11720;51.214;22.574;2022-11-03T14:35:12;5.13;;;1.73;;
23101;SDS011;11720;51.214;22.574;2022-11-03T14:37:38;5.00;;;2.72;;
23101;SDS011;11720;51.214;22.574;2022-11-03T14:40:04;4.47;;;2.45;;
23101;SDS011;11720;51.214;22.574;2022-11-03T14:42:31;6.47;;;1.98;;
23101;SDS011;11720;51.214;22.574;2022-11-03T14:44:57;10.38;;;2.38;;
23101;SDS011;11720;51.214;22.574;2022-11-03T14:47:22;7.05;;;2.78;;
23101;SDS011;11720;51.214;22.574;2022-11-03T14:49:49;3.72;;;1.85;;
23101;SDS011;11720;51.214;22.574;2022-11-03T14:52:15;4.57;;;2.05;;
23101;SDS011;11720;51.214;22.574;2022-11-03T14:54:41;4.88;;;1.85;;
23101;SDS011;11720;51.214;22.574;2022-11-03T14:57:08;4.80;;;2.10;;
23101;SDS011;11720;51.214;22.574;2022-11-03T14:59:34;4.22;;;1.92;;
23101;SDS011;11720;51.214;22.574;2022-11-03T15:01:59;10.05;;;2.88;;
23101;SDS011;11720;51.214;22.574;2022-11-03T15:04:26;4.10;;;2.13;;
23101;SDS011;11720;51.214;22.574;2022-11-03T15:06:52;7.57;;;2.10;;
23101;SDS011;11720;51.214;22.574;2022-11-03T15:09:18;15.25;;;2.80;;
23101;SDS011;11720;51.214;22.574;2022-11-03T15:11:44;4.88;;;2.17;;
23101;SDS011;11720;51.214;22.574;2022-11-03T15:14:10;10.15;;;3.13;;
23101;SDS011;11720;51.214;22.574;2022-11-03T15:16:37;6.82;;;2.63;;
23101;SDS011;11720;51.214;22.574;2022-11-03T15:19:03;11.30;;;2.78;;
23101;SDS011;11720;51.214;22.574;2022-11-03T15:21:30;7.22;;;3.60;;
23101;SDS011;11720;51.214;22.574;2022-11-03T15:23:56;7.88;;;3.28;;
23101;SDS011;11720;51.214;22.574;2022-11-03T15:26:21;7.45;;;2.17;;
23101;SDS011;11720;51.214;22.574;2022-11-03T15:28:47;8.30;;;3.42;;
23101;SDS011;11720;51.214;22.574;2022-11-03T15:31:13;7.20;;;2.13;;
23101;SDS011;11720;51.214;22.574;2022-11-03T15:33:39;10.07;;;4.05;;
23101;SDS011;11720;51.214;22.574;2022-11-03T15:36:04;12.25;;;4.43;;
23101;SDS011;11720;51.214;22.574;2022-11-03T15:38:32;12.07;;;5.10;;
23101;SDS011;11720;51.214;22.574;2022-11-03T15:40:58;17.10;;;5.45;;
23101;SDS011;11720;51.214;22.574;2022-11-03T15:43:46;16.60;;;7.17;;
23101;SDS011;11720;51.214;22.574;2022-11-03T15:46:13;37.15;;;13.40;;
23101;SDS011;11720;51.214;22.574;2022-11-03T15:48:40;22.70;;;8.83;;
23101;SDS011;11720;51.214;22.574;2022-11-03T15:51:06;24.23;;;9.87;;
23101;SDS011;11720;51.214;22.574;2022-11-03T15:53:32;26.27;;;10.00;;
23101;SDS011;11720;51.214;22.574;2022-11-03T15:55:57;26.03;;;10.20;;
23101;SDS011;11720;51.214;22.574;2022-11-03T15:58:23;45.97;;;11.97;;
23101;SDS011;11720;51.214;22.574;2022-11-03T16:00:49;34.30;;;13.90;;
23101;SDS011;11720;51.214;22.574;2022-11-03T16:03:14;34.83;;;13.30;;
23101;SDS011;11720;51.214;22.574;2022-11-03T16:05:40;29.20;;;13.47;;